Time;durP1;ratioP1;P1;durP2;ratioP2;P2;SDS_P1;SDS_P2;PMS_P1;PMS_P2;Temp;Humidity;BMP_temperature;BMP_pressure;BME280_temperature;BME280_humidity;BME280_pressure;Samples;Min_cycle;Max_cycle;Signal;HPM_P1;HPM_P2
2024/02/08 00:00:22;;;;;;;;;;;;;;;;;;4120210;28;20394;-57
2024/02/08 00:02:23;;;;;;;;;;;;;;;;;;4120610;28;19977;-57
2024/02/08 00:04:25;;;;;;;;;;;;;;;;;;4121026;28;19926;-57
2024/02/08 00:06:31;;;;;;;;;;;;;;;;;;4121183;28;19922;-57
2024/02/08 00:08:35;;;;;;;;;;;;;;;;;;4121026;28;19921;-57
2024/02/08 00:10:36;;;;;;;;;;;;;;;;;;4118924;28;20267;-57
2024/02/08 00:12:38;;;;;;;;;;;;;;;;;;4120751;28;20331;-57
2024/02/08 00:14:39;;;;;;;;;;;;;;;;;;4120988;28;20020;-57
2024/02/08 00:16:41;;;;;;;;;;;;;;;;;;4121181;28;19922;-57
2024/02/08 00:18:44;;;;;;;;;;;;;;;;;;4121476;28;19922;-57
2024/02/08 00:20:45;;;;;;;;;;;;;;;;;;4136989;28;19926;-58
2024/02/08 00:22:49;;;;;;;;;;;;;;;;;;4136977;28;20020;-57
2024/02/08 00:24:53;;;;;;;;;;;;;;;;;;4137023;28;19972;-57
2024/02/08 00:26:55;;;;;;;;;;;;;;;;;;4137181;28;19926;-57
2024/02/08 00:28:56;;;;;;;;;;;;;;;;;;4137213;28;19921;-56
2024/02/08 00:30:58;;;;;;;;;;;;;;;;;;4136895;28;19930;-57
2024/02/08 00:33:00;;;;;;;;;;;;;;;;;;4137023;28;19925;-56
2024/02/08 00:35:03;;;;;;;;;;;;;;;;;;4136984;28;19922;-57
2024/02/08 00:37:08;;;;;;;;;;;;;;;;;;4137032;28;19922;-57
2024/02/08 00:39:09;;;;;;;;;;;;;;;;;;4136914;28;19957;-57
2024/02/08 00:41:11;;;;;;;;;;;;;;;;;;4121418;28;20334;-57
2024/02/08 00:43:12;;;;;;;;;;;;;;;;;;4112385;28;19930;-57
2024/02/08 00:45:21;;;;;;;;;;;;;;;;;;4104731;29;19962;-57
2024/02/08 00:47:24;;;;;;;;;;;;;;;;;;4124197;28;19928;-57
2024/02/08 00:49:26;;;;;;;;;;;;;;;;;;4136569;28;20021;-56
2024/02/08 00:51:27;;;;;;;;;;;;;;;;;;4124658;28;19969;-56
2024/02/08 00:53:31;;;;;;;;;;;;;;;;;;4120571;28;19929;-57
2024/02/08 00:55:33;;;;;;;;;;;;;;;;;;4120874;28;19922;-57
2024/02/08 00:57:35;;;;;;;;;;;;;;;;;;4120429;28;19976;-57
2024/02/08 00:59:39;;;;;;;;;;;;;;;;;;4120587;28;19922;-56
2024/02/08 01:01:41;;;;;;;;;;;;;;;;;;4120379;28;20012;-57
2024/02/08 01:03:42;;;;;;;;;;;;;;;;;;4120676;28;20371;-57
2024/02/08 01:05:48;;;;;;;;;;;;;;;;;;4118347;28;20372;-57
2024/02/08 01:07:51;;;;;;;;;;;;;;;;;;4118295;28;19969;-57
2024/02/08 01:09:52;;;;;;;;;;;;;;;;;;4116843;28;19976;-57
2024/02/08 01:11:54;;;;;;;;;;;;;;;;;;4118050;28;20361;-56
2024/02/08 01:13:55;;;;;;;;;;;;;;;;;;4116860;28;19961;-57
2024/02/08 01:15:57;;;;;;;;;;;;;;;;;;4117797;28;20234;-57
2024/02/08 01:17:58;;;;;;;;;;;;;;;;;;4118036;28;19961;-57
2024/02/08 01:20:00;;;;;;;;;;;;;;;;;;4118071;28;20105;-57
2024/02/08 01:22:03;;;;;;;;;;;;;;;;;;4117782;28;20389;-57
2024/02/08 01:24:04;;;;;;;;;;;;;;;;;;4117865;28;19922;-57
2024/02/08 01:26:09;;;;;;;;;;;;;;;;;;4117744;28;20416;-57
2024/02/08 01:28:12;;;;;;;;;;;;;;;;;;4117993;28;20393;-57
2024/02/08 01:30:13;;;;;;;;;;;;;;;;;;4117625;28;19933;-56
2024/02/08 01:32:15;;;;;;;;;;;;;;;;;;4117604;28;19926;-57
2024/02/08 01:34:18;;;;;;;;;;;;;;;;;;4117744;28;19922;-57
2024/02/08 01:36:19;;;;;;;;;;;;;;;;;;4117739;28;19980;-57
2024/02/08 01:38:21;;;;;;;;;;;;;;;;;;4117678;28;19932;-57
2024/02/08 01:40:24;;;;;;;;;;;;;;;;;;4117621;28;19925;-56
2024/02/08 01:42:25;;;;;;;;;;;;;;;;;;4117591;28;19921;-58
2024/02/08 01:44:27;;;;;;;;;;;;;;;;;;4117508;28;20386;-57
2024/02/08 01:46:28;;;;;;;;;;;;;;;;;;4117722;28;19977;-57
2024/02/08 01:48:30;;;;;;;;;;;;;;;;;;4117498;28;19960;-57
2024/02/08 01:50:32;;;;;;;;;;;;;;;;;;4115637;28;20468;-57
2024/02/08 01:52:33;;;;;;;;;;;;;;;;;;4117252;28;19928;-57
2024/02/08 01:54:35;;;;;;;;;;;;;;;;;;4117643;28;19977;-57
2024/02/08 01:56:36;;;;;;;;;;;;;;;;;;4117662;28;19926;-57
2024/02/08 01:58:38;;;;;;;;;;;;;;;;;;4116228;28;20008;-57
2024/02/08 02:00:39;;;;;;;;;;;;;;;;;;4117220;28;19973;-56
2024/02/08 02:02:41;;;;;;;;;;;;;;;;;;4116988;28;20368;-57
2024/02/08 02:04:42;;;;;;;;;;;;;;;;;;4117145;28;19926;-56
2024/02/08 02:06:44;;;;;;;;;;;;;;;;;;4117020;28;20032;-57
2024/02/08 02:09:00;;;;;;;;;;;;;;;;;;4117156;28;19962;-56
2024/02/08 02:11:05;;;;;;;;;;;;;;;;;;4117168;28;19921;-57
2024/02/08 02:13:10;;;;;;;;;;;;;;;;;;4116995;28;19926;-57
2024/02/08 02:15:12;;;;;;;;;;;;;;;;;;4117306;28;19926;-57
2024/02/08 02:17:13;;;;;;;;;;;;;;;;;;4116951;28;19922;-57
2024/02/08 02:19:15;;;;;;;;;;;;;;;;;;4117030;28;19926;-57
2024/02/08 02:21:17;;;;;;;;;;;;;;;;;;4117122;28;20491;-57
2024/02/08 02:23:18;;;;;;;;;;;;;;;;;;4116908;28;20374;-57
2024/02/08 02:25:20;;;;;;;;;;;;;;;;;;4115691;28;20416;-57
2024/02/08 02:27:21;;;;;;;;;;;;;;;;;;4115724;28;19929;-57
2024/02/08 02:29:23;;;;;;;;;;;;;;;;;;4116901;28;19929;-57
2024/02/08 02:31:24;;;;;;;;;;;;;;;;;;4116829;28;20012;-57
2024/02/08 02:33:26;;;;;;;;;;;;;;;;;;4116911;28;19961;-57
2024/02/08 02:35:28;;;;;;;;;;;;;;;;;;4115506;28;19922;-57
2024/02/08 02:37:33;;;;;;;;;;;;;;;;;;4131553;28;19925;-57
2024/02/08 02:39:35;;;;;;;;;;;;;;;;;;4116557;28;19922;-57
2024/02/08 02:41:37;;;;;;;;;;;;;;;;;;4116674;28;19958;-57
2024/02/08 02:43:38;;;;;;;;;;;;;;;;;;4116601;28;20009;-57
2024/02/08 02:45:40;;;;;;;;;;;;;;;;;;4115399;28;19973;-57
2024/02/08 02:47:42;;;;;;;;;;;;;;;;;;4116531;28;19944;-57
2024/02/08 02:49:44;;;;;;;;;;;;;;;;;;4116294;28;19977;-57
2024/02/08 02:51:48;;;;;;;;;;;;;;;;;;4129050;28;20461;-57
2024/02/08 02:53:49;;;;;;;;;;;;;;;;;;4100436;29;19968;-57
2024/02/08 02:55:51;;;;;;;;;;;;;;;;;;4100544;28;20016;-57
2024/02/08 02:57:53;;;;;;;;;;;;;;;;;;4124248;28;19922;-57
2024/02/08 02:59:59;;;;;;;;;;;;;;;;;;4116458;28;19926;-56
2024/02/08 03:02:01;;;;;;;;;;;;;;;;;;4116162;28;19921;-56
2024/02/08 03:04:03;;;;;;;;;;;;;;;;;;4116661;28;19969;-56
2024/02/08 03:06:13;;;;;;;;;;;;;;;;;;4116337;28;20363;-57
2024/02/08 03:08:16;;;;;;;;;;;;;;;;;;4123237;28;20438;-57
2024/02/08 03:10:21;;;;;;;;;;;;;;;;;;4132311;28;19929;-57
2024/02/08 03:12:23;;;;;;;;;;;;;;;;;;4132266;28;19961;-57
2024/02/08 03:14:25;;;;;;;;;;;;;;;;;;4132445;28;20413;-57
2024/02/08 03:16:28;;;;;;;;;;;;;;;;;;4131066;28;19926;-56
2024/02/08 03:18:30;;;;;;;;;;;;;;;;;;4132232;28;20425;-56
2024/02/08 03:20:31;;;;;;;;;;;;;;;;;;4132151;28;19929;-57
2024/02/08 03:22:34;;;;;;;;;;;;;;;;;;4114952;28;20348;-56
2024/02/08 03:24:35;;;;;;;;;;;;;;;;;;4132203;28;19921;-57
2024/02/08 03:26:40;;;;;;;;;;;;;;;;;;4114916;28;19930;-57
2024/02/08 03:28:42;;;;;;;;;;;;;;;;;;4131445;28;19922;-57
2024/02/08 03:30:43;;;;;;;;;;;;;;;;;;4131998;28;19925;-57
2024/02/08 03:32:45;;;;;;;;;;;;;;;;;;4132179;28;20024;-57
2024/02/08 03:34:46;;;;;;;;;;;;;;;;;;4129727;28;19922;-57
2024/02/08 03:36:49;;;;;;;;;;;;;;;;;;4115902;28;19985;-57
2024/02/08 03:38:52;;;;;;;;;;;;;;;;;;4115954;28;19926;-57
2024/02/08 03:40:54;;;;;;;;;;;;;;;;;;4115371;28;19922;-56
2024/02/08 03:42:56;;;;;;;;;;;;;;;;;;4114900;28;20453;-57
2024/02/08 03:45:00;;;;;;;;;;;;;;;;;;4114106;28;20026;-57
2024/02/08 03:47:04;;;;;;;;;;;;;;;;;;4114252;28;19922;-57
2024/02/08 03:49:08;;;;;;;;;;;;;;;;;;4114160;28;19922;-57
2024/02/08 03:51:10;;;;;;;;;;;;;;;;;;4114090;28;19941;-57
2024/02/08 03:53:12;;;;;;;;;;;;;;;;;;4114467;28;20016;-57
2024/02/08 03:55:16;;;;;;;;;;;;;;;;;;4115676;28;19926;-57
2024/02/08 03:57:18;;;;;;;;;;;;;;;;;;4115716;28;20033;-57
2024/02/08 03:59:26;;;;;;;;;;;;;;;;;;4115728;28;19954;-58
2024/02/08 04:01:28;;;;;;;;;;;;;;;;;;4115519;28;19968;-57
2024/02/08 04:04:12;;;;;;;;;;;;;;;;;;4114416;28;19930;-57
2024/02/08 04:07:59;;;;;;;;;;;;;;;;;;4099796;29;20014;-56
2024/02/08 04:10:18;;;;;;;;;;;;;;;;;;4099652;29;20374;-57
2024/02/08 04:54:23;;;;;;;;;;;;;;;;;;4118265;28;19953;-57
2024/02/08 04:56:25;;;;;;;;;;;;;;;;;;4118683;28;20009;-57
2024/02/08 04:58:27;;;;;;;;;;;;;;;;;;4118079;28;19961;-57
2024/02/08 05:00:48;;;;;;;;;;;;;;;;;;4118187;28;20311;-58
2024/02/08 05:02:49;;;;;;;;;;;;;;;;;;4117816;28;20351;-58
2024/02/08 05:04:51;;;;;;;;;;;;;;;;;;4118158;28;19933;-57
2024/02/08 05:06:55;;;;;;;;;;;;;;;;;;4118216;28;19973;-57
2024/02/08 05:08:57;;;;;;;;;;;;;;;;;;4117814;28;19933;-57
2024/02/08 05:10:59;;;;;;;;;;;;;;;;;;4118277;28;19969;-57
2024/02/08 05:13:04;;;;;;;;;;;;;;;;;;4083709;29;20409;-56
2024/02/08 05:15:12;;;;;;;;;;;;;;;;;;4118029;28;20046;-57
2024/02/08 05:17:14;;;;;;;;;;;;;;;;;;4118294;28;20327;-57
2024/02/08 05:19:15;;;;;;;;;;;;;;;;;;4118190;28;20297;-57
2024/02/08 05:21:17;;;;;;;;;;;;;;;;;;4118087;28;19968;-57
2024/02/08 05:23:18;;;;;;;;;;;;;;;;;;4117872;28;19937;-57
2024/02/08 05:25:21;;;;;;;;;;;;;;;;;;4117825;28;20358;-57
2024/02/08 05:27:25;;;;;;;;;;;;;;;;;;4117165;28;19926;-57
2024/02/08 05:29:28;;;;;;;;;;;;;;;;;;4117778;28;19929;-57
2024/02/08 05:31:30;;;;;;;;;;;;;;;;;;4117775;28;20317;-57
2024/02/08 05:33:32;;;;;;;;;;;;;;;;;;4117790;28;19929;-57
2024/02/08 05:35:34;;;;;;;;;;;;;;;;;;4117607;28;20366;-57
2024/02/08 05:37:35;;;;;;;;;;;;;;;;;;4117710;28;19922;-57
2024/02/08 05:39:37;;;;;;;;;;;;;;;;;;4117671;28;19922;-57
2024/02/08 05:41:44;;;;;;;;;;;;;;;;;;4117862;28;19957;-57
2024/02/08 05:43:45;;;;;;;;;;;;;;;;;;4116294;28;19926;-57
2024/02/08 05:45:51;;;;;;;;;;;;;;;;;;4117572;28;20012;-56
2024/02/08 05:47:53;;;;;;;;;;;;;;;;;;4117605;28;19981;-56
2024/02/08 05:49:54;;;;;;;;;;;;;;;;;;4117087;28;20008;-58
2024/02/08 05:52:05;;;;;;;;;;;;;;;;;;4116935;28;19922;-57
2024/02/08 05:54:08;;;;;;;;;;;;;;;;;;4117438;28;19928;-57
2024/02/08 05:56:09;;;;;;;;;;;;;;;;;;4117468;28;19928;-57
2024/02/08 05:58:16;;;;;;;;;;;;;;;;;;4117272;28;20298;-57
2024/02/08 06:00:32;;;;;;;;;;;;;;;;;;4117385;28;19932;-57
2024/02/08 06:02:35;;;;;;;;;;;;;;;;;;4117179;28;20333;-57
2024/02/08 06:04:36;;;;;;;;;;;;;;;;;;4117358;28;19926;-57
2024/02/08 06:06:48;;;;;;;;;;;;;;;;;;4117432;28;20432;-57
2024/02/08 06:08:56;;;;;;;;;;;;;;;;;;4117176;28;20417;-56
2024/02/08 06:10:57;;;;;;;;;;;;;;;;;;4117016;28;19937;-57
2024/02/08 06:12:59;;;;;;;;;;;;;;;;;;4115669;28;20420;-57
2024/02/08 06:15:14;;;;;;;;;;;;;;;;;;4112338;28;20294;-57
2024/02/08 06:17:23;;;;;;;;;;;;;;;;;;4101228;29;20098;-57
2024/02/08 06:19:27;;;;;;;;;;;;;;;;;;4100895;29;19922;-57
2024/02/08 06:22:16;;;;;;;;;;;;;;;;;;4100860;29;20295;-56
2024/02/08 06:24:14;;;;;;;;;;;;;;;;;;4106452;28;19976;-56
2024/02/08 06:28:24;;;;;;;;;;;;;;;;;;4116401;28;19969;-68
2024/02/08 06:30:31;;;;;;;;;;;;;;;;;;4115659;28;19944;-67
2024/02/08 06:34:55;;;;;;;;;;;;;;;;;;4117075;28;19976;-67
2024/02/08 06:37:15;;;;;;;;;;;;;;;;;;4116971;28;19922;-67
2024/02/08 06:39:23;;;;;;;;;;;;;;;;;;4116585;28;19926;-68
2024/02/08 06:41:51;;;;;;;;;;;;;;;;;;4116603;28;20432;-66
2024/02/08 06:44:42;;;;;;;;;;;;;;;;;;4116664;28;19924;-67
2024/02/08 06:46:39;;;;;;;;;;;;;;;;;;4116536;28;19922;-67
2024/02/08 07:37:29;;;;;;;;;;;;;;;;;;4116303;28;19965;-63
2024/02/08 07:39:34;;;;;;;;;;;;;;;;;;4115814;28;19922;-62
2024/02/08 07:41:40;;;;;;;;;;;;;;;;;;4115982;28;19921;-62
2024/02/08 07:43:54;;;;;;;;;;;;;;;;;;4115779;28;19921;-62
2024/02/08 07:46:03;;;;;;;;;;;;;;;;;;4116061;28;20070;-63
2024/02/08 07:48:10;;;;;;;;;;;;;;;;;;4114997;28;19926;-62
2024/02/08 07:50:11;;;;;;;;;;;;;;;;;;4126011;28;19921;-63
2024/02/08 07:52:19;;;;;;;;;;;;;;;;;;4115580;28;20337;-62
2024/02/08 07:54:21;;;;;;;;;;;;;;;;;;4099909;29;19922;-63
2024/02/08 07:58:27;;;;;;;;;;;;;;;;;;4111413;28;19922;-62
2024/02/08 08:00:50;;;;;;;;;;;;;;;;;;4115676;28;19985;-62
2024/02/08 08:02:50;;;;;;;;;;;;;;;;;;4115482;28;19922;-61
2024/02/08 08:04:51;;;;;;;;;;;;;;;;;;4115623;28;19930;-62
2024/02/08 08:07:00;;;;;;;;;;;;;;;;;;4115760;28;19922;-62
2024/02/08 08:09:18;;;;;;;;;;;;;;;;;;4098490;29;19922;-63
2024/02/08 08:11:24;;;;;;;;;;;;;;;;;;4115638;28;19936;-63
2024/02/08 08:13:50;;;;;;;;;;;;;;;;;;4115654;28;19929;-62
2024/02/08 08:16:35;;;;;;;;;;;;;;;;;;4117618;28;19921;-62
2024/02/08 08:18:23;;;;;;;;;;;;;;;;;;4118732;28;20289;-62
2024/02/08 08:22:54;;;;;;;;;;;;;;;;;;4118759;28;20457;-61
2024/02/08 08:25:28;;;;;;;;;;;;;;;;;;4118572;28;19922;-62
2024/02/08 08:27:26;;;;;;;;;;;;;;;;;;4126449;28;19922;-61
2024/02/08 08:29:42;;;;;;;;;;;;;;;;;;4134779;28;19976;-61
2024/02/08 08:31:51;;;;;;;;;;;;;;;;;;4134673;28;19922;-69
2024/02/08 08:33:59;;;;;;;;;;;;;;;;;;4133754;28;19957;-68
2024/02/08 08:36:34;;;;;;;;;;;;;;;;;;4134727;28;20272;-68
2024/02/08 08:38:44;;;;;;;;;;;;;;;;;;4134711;28;19921;-67
2024/02/08 08:40:49;;;;;;;;;;;;;;;;;;4134890;28;20286;-68
2024/02/08 08:42:54;;;;;;;;;;;;;;;;;;4134679;28;19921;-68
2024/02/08 08:44:59;;;;;;;;;;;;;;;;;;4134108;28;19960;-68
2024/02/08 08:47:02;;;;;;;;;;;;;;;;;;4118551;28;19926;-68
2024/02/08 08:49:04;;;;;;;;;;;;;;;;;;4118500;28;19950;-67
2024/02/08 08:51:10;;;;;;;;;;;;;;;;;;4118027;28;19922;-69
2024/02/08 08:53:19;;;;;;;;;;;;;;;;;;4118311;28;20287;-68
2024/02/08 08:55:21;;;;;;;;;;;;;;;;;;4118126;28;19929;-67
2024/02/08 08:57:25;;;;;;;;;;;;;;;;;;4124781;28;19922;-68
2024/02/08 08:59:29;;;;;;;;;;;;;;;;;;4118501;28;19999;-68
2024/02/08 09:01:36;;;;;;;;;;;;;;;;;;4118134;28;20355;-68
2024/02/08 09:03:38;;;;;;;;;;;;;;;;;;4117941;28;19968;-68
2024/02/08 09:05:43;;;;;;;;;;;;;;;;;;4118423;28;19926;-68
2024/02/08 09:07:45;;;;;;;;;;;;;;;;;;4118059;28;19926;-68
2024/02/08 09:10:02;;;;;;;;;;;;;;;;;;4124950;28;19925;-68
2024/02/08 09:12:04;;;;;;;;;;;;;;;;;;4134372;28;20393;-68
2024/02/08 09:14:10;;;;;;;;;;;;;;;;;;4134102;28;19928;-68
2024/02/08 09:19:03;;;;;;;;;;;;;;;;;;4117981;28;19926;-67
2024/02/08 09:20:48;;;;;;;;;;;;;;;;;;4117690;28;19922;-68
2024/02/08 09:22:49;;;;;;;;;;;;;;;;;;4117885;28;19922;-68
2024/02/08 09:24:51;;;;;;;;;;;;;;;;;;4117883;28;20024;-67
2024/02/08 09:27:00;;;;;;;;;;;;;;;;;;4126061;28;19972;-68
2024/02/08 09:29:09;;;;;;;;;;;;;;;;;;4132968;28;19928;-68
2024/02/08 09:31:16;;;;;;;;;;;;;;;;;;4134147;28;19953;-68
2024/02/08 09:33:30;;;;;;;;;;;;;;;;;;4132705;28;19925;-69
2024/02/08 09:35:32;;;;;;;;;;;;;;;;;;4133638;28;19926;-68
2024/02/08 09:37:34;;;;;;;;;;;;;;;;;;4133844;28;20487;-68
2024/02/08 09:39:58;;;;;;;;;;;;;;;;;;4133754;28;19929;-68
2024/02/08 09:42:07;;;;;;;;;;;;;;;;;;4118478;28;19929;-68
2024/02/08 09:44:11;;;;;;;;;;;;;;;;;;4101654;29;19922;-68
2024/02/08 09:48:48;;;;;;;;;;;;;;;;;;4101879;29;19923;-66
2024/02/08 09:50:50;;;;;;;;;;;;;;;;;;4108022;28;19922;-68
2024/02/08 09:52:56;;;;;;;;;;;;;;;;;;4117284;28;19961;-68
2024/02/08 09:55:18;;;;;;;;;;;;;;;;;;4117618;28;20404;-68
2024/02/08 09:57:23;;;;;;;;;;;;;;;;;;4117160;28;20334;-68
2024/02/08 10:01:44;;;;;;;;;;;;;;;;;;4117041;28;20009;-62
2024/02/08 10:03:46;;;;;;;;;;;;;;;;;;4121851;28;19926;-63
2024/02/08 10:05:51;;;;;;;;;;;;;;;;;;4133573;28;20432;-63
2024/02/08 10:08:05;;;;;;;;;;;;;;;;;;4133409;28;19972;-67
2024/02/08 10:10:17;;;;;;;;;;;;;;;;;;4133307;28;19949;-68
2024/02/08 10:12:20;;;;;;;;;;;;;;;;;;4115906;28;19945;-68
2024/02/08 10:14:25;;;;;;;;;;;;;;;;;;4133131;28;20386;-67
2024/02/08 10:16:42;;;;;;;;;;;;;;;;;;4127061;28;19922;-67
2024/02/08 10:18:44;;;;;;;;;;;;;;;;;;4116053;28;20366;-68
2024/02/08 10:20:45;;;;;;;;;;;;;;;;;;4116976;28;20425;-69
2024/02/08 10:27:47;;;;;;;;;;;;;;;;;;4099159;29;19922;-68
2024/02/08 10:29:48;;;;;;;;;;;;;;;;;;4098915;29;19939;-67
2024/02/08 10:31:52;;;;;;;;;;;;;;;;;;4099056;29;20294;-69
2024/02/08 10:34:08;;;;;;;;;;;;;;;;;;4098947;29;19922;-69
2024/02/08 10:36:15;;;;;;;;;;;;;;;;;;4098907;29;19945;-69
2024/02/08 10:38:18;;;;;;;;;;;;;;;;;;4082893;29;19946;-68
2024/02/08 10:40:28;;;;;;;;;;;;;;;;;;4098709;29;20334;-68
2024/02/08 10:42:38;;;;;;;;;;;;;;;;;;4097824;29;19929;-68
2024/02/08 10:44:40;;;;;;;;;;;;;;;;;;4098853;29;19966;-68
2024/02/08 10:46:42;;;;;;;;;;;;;;;;;;4097767;29;19926;-68
2024/02/08 10:48:48;;;;;;;;;;;;;;;;;;4098803;29;19930;-67
2024/02/08 10:50:50;;;;;;;;;;;;;;;;;;4095038;29;20464;-68
2024/02/08 10:52:52;;;;;;;;;;;;;;;;;;4089648;29;19986;-68
2024/02/08 10:54:55;;;;;;;;;;;;;;;;;;4082774;29;19926;-68
2024/02/08 10:57:06;;;;;;;;;;;;;;;;;;4111452;28;19922;-68
2024/02/08 11:01:32;;;;;;;;;;;;;;;;;;4115066;28;19965;-67
2024/02/08 11:03:34;;;;;;;;;;;;;;;;;;4115474;28;19968;-67
2024/02/08 11:05:48;;;;;;;;;;;;;;;;;;4115991;28;19922;-68
2024/02/08 11:07:53;;;;;;;;;;;;;;;;;;4099358;29;19930;-69
2024/02/08 11:09:58;;;;;;;;;;;;;;;;;;4101888;28;20005;-69
2024/02/08 11:12:03;;;;;;;;;;;;;;;;;;4116126;28;19922;-69
2024/02/08 11:14:08;;;;;;;;;;;;;;;;;;4115575;28;20382;-69
2024/02/08 11:16:22;;;;;;;;;;;;;;;;;;4115404;28;19985;-68
2024/02/08 11:18:33;;;;;;;;;;;;;;;;;;4114181;28;20316;-63
2024/02/08 11:20:44;;;;;;;;;;;;;;;;;;4109590;28;19965;-63
2024/02/08 11:22:57;;;;;;;;;;;;;;;;;;4115575;28;20004;-62
2024/02/08 11:24:58;;;;;;;;;;;;;;;;;;4115343;28;19934;-62
2024/02/08 11:27:04;;;;;;;;;;;;;;;;;;4115017;28;19922;-63
2024/02/08 11:29:18;;;;;;;;;;;;;;;;;;4115752;28;19922;-62
2024/02/08 11:31:21;;;;;;;;;;;;;;;;;;4116114;28;19922;-62
2024/02/08 11:33:23;;;;;;;;;;;;;;;;;;4115538;28;19937;-62
2024/02/08 11:35:24;;;;;;;;;;;;;;;;;;4118861;28;19969;-62
2024/02/08 11:37:26;;;;;;;;;;;;;;;;;;4115697;28;19929;-63
2024/02/08 11:39:28;;;;;;;;;;;;;;;;;;4115938;28;20392;-62
2024/02/08 11:41:31;;;;;;;;;;;;;;;;;;4115001;28;19921;-62
2024/02/08 11:43:33;;;;;;;;;;;;;;;;;;4115689;28;19922;-62
2024/02/08 11:45:35;;;;;;;;;;;;;;;;;;4115301;28;20267;-62
2024/02/08 11:47:38;;;;;;;;;;;;;;;;;;4115599;28;19949;-62
2024/02/08 11:49:40;;;;;;;;;;;;;;;;;;4105871;28;19977;-63
2024/02/08 11:51:42;;;;;;;;;;;;;;;;;;4112483;28;19926;-62
2024/02/08 11:53:46;;;;;;;;;;;;;;;;;;4113619;28;20346;-63
2024/02/08 11:55:48;;;;;;;;;;;;;;;;;;4108237;28;19933;-63
2024/02/08 11:57:53;;;;;;;;;;;;;;;;;;4106449;28;20403;-63
2024/02/08 11:59:55;;;;;;;;;;;;;;;;;;4104912;28;20930;-63
2024/02/08 12:02:00;;;;;;;;;;;;;;;;;;4109939;28;19922;-63
2024/02/08 12:04:01;;;;;;;;;;;;;;;;;;4100018;29;19923;-62
2024/02/08 12:06:05;;;;;;;;;;;;;;;;;;4099722;29;19922;-62
2024/02/08 12:08:09;;;;;;;;;;;;;;;;;;4099908;29;19922;-62
2024/02/08 12:10:15;;;;;;;;;;;;;;;;;;4114100;28;20309;-62
2024/02/08 12:12:18;;;;;;;;;;;;;;;;;;4114635;28;19932;-63
2024/02/08 12:14:21;;;;;;;;;;;;;;;;;;4114298;28;19980;-61
2024/02/08 12:16:27;;;;;;;;;;;;;;;;;;4110057;28;19928;-62
2024/02/08 12:18:29;;;;;;;;;;;;;;;;;;4111318;28;19922;-67
2024/02/08 12:20:31;;;;;;;;;;;;;;;;;;4115543;28;19961;-68
2024/02/08 12:22:33;;;;;;;;;;;;;;;;;;4115518;28;20337;-68
2024/02/08 12:24:34;;;;;;;;;;;;;;;;;;4109439;28;19925;-67
2024/02/08 12:26:38;;;;;;;;;;;;;;;;;;4105450;28;19930;-68
2024/02/08 12:28:40;;;;;;;;;;;;;;;;;;4103746;28;19926;-69
2024/02/08 12:30:42;;;;;;;;;;;;;;;;;;4119910;28;19926;-68
2024/02/08 12:32:44;;;;;;;;;;;;;;;;;;4115356;28;19969;-68
2024/02/08 12:34:47;;;;;;;;;;;;;;;;;;4115391;28;19928;-68
2024/02/08 12:36:50;;;;;;;;;;;;;;;;;;4115617;28;19922;-68
2024/02/08 12:38:54;;;;;;;;;;;;;;;;;;4114220;28;19932;-67
2024/02/08 12:40:55;;;;;;;;;;;;;;;;;;4115400;28;20306;-68
2024/02/08 12:42:57;;;;;;;;;;;;;;;;;;4115388;28;19926;-68
2024/02/08 12:44:59;;;;;;;;;;;;;;;;;;4109300;28;19926;-57
2024/02/08 12:47:01;;;;;;;;;;;;;;;;;;4110173;28;19954;-57
2024/02/08 12:49:02;;;;;;;;;;;;;;;;;;4105705;28;19930;-57
2024/02/08 12:51:04;;;;;;;;;;;;;;;;;;4108725;28;19926;-57
2024/02/08 12:53:05;;;;;;;;;;;;;;;;;;4103957;28;19923;-57
2024/02/08 12:55:09;;;;;;;;;;;;;;;;;;4099321;28;19929;-57
2024/02/08 12:57:12;;;;;;;;;;;;;;;;;;4101182;28;20038;-57
2024/02/08 12:59:14;;;;;;;;;;;;;;;;;;4115190;28;19926;-57
2024/02/08 13:01:18;;;;;;;;;;;;;;;;;;4114110;28;19926;-57
2024/02/08 13:03:24;;;;;;;;;;;;;;;;;;4116629;28;19922;-57
2024/02/08 13:05:29;;;;;;;;;;;;;;;;;;4117789;28;19932;-56
2024/02/08 13:07:31;;;;;;;;;;;;;;;;;;4118427;28;19929;-56
2024/02/08 13:09:37;;;;;;;;;;;;;;;;;;4118060;28;20370;-57
2024/02/08 13:11:39;;;;;;;;;;;;;;;;;;4118062;28;19922;-57
2024/02/08 13:13:41;;;;;;;;;;;;;;;;;;4118402;28;19929;-57
2024/02/08 13:15:43;;;;;;;;;;;;;;;;;;4117875;28;19952;-58
2024/02/08 13:17:45;;;;;;;;;;;;;;;;;;4117941;28;20433;-57
2024/02/08 13:19:47;;;;;;;;;;;;;;;;;;4117945;28;20390;-57
2024/02/08 13:21:49;;;;;;;;;;;;;;;;;;4109950;28;20290;-57
2024/02/08 13:23:51;;;;;;;;;;;;;;;;;;4108643;28;19926;-57
2024/02/08 13:25:54;;;;;;;;;;;;;;;;;;4117124;28;19988;-58
2024/02/08 13:27:58;;;;;;;;;;;;;;;;;;4116879;28;19922;-57
2024/02/08 13:30:00;;;;;;;;;;;;;;;;;;4117975;28;19976;-58
2024/02/08 13:32:02;;;;;;;;;;;;;;;;;;4117645;28;19929;-57
2024/02/08 13:34:03;;;;;;;;;;;;;;;;;;4117785;28;20009;-57
2024/02/08 13:36:08;;;;;;;;;;;;;;;;;;4117632;28;20197;-57
2024/02/08 13:38:15;;;;;;;;;;;;;;;;;;4117727;28;19977;-57
2024/02/08 13:40:18;;;;;;;;;;;;;;;;;;4117580;28;19932;-57
2024/02/08 13:42:19;;;;;;;;;;;;;;;;;;4111368;28;19922;-57
2024/02/08 13:44:24;;;;;;;;;;;;;;;;;;4117628;28;19922;-58
2024/02/08 13:46:29;;;;;;;;;;;;;;;;;;4114252;28;20374;-57
2024/02/08 13:48:32;;;;;;;;;;;;;;;;;;4115752;28;19922;-58
2024/02/08 13:50:34;;;;;;;;;;;;;;;;;;4117024;28;19926;-57
2024/02/08 13:52:37;;;;;;;;;;;;;;;;;;4117495;28;19977;-57
2024/02/08 13:54:39;;;;;;;;;;;;;;;;;;4117486;28;19929;-57
2024/02/08 13:56:40;;;;;;;;;;;;;;;;;;4113057;28;19922;-58
2024/02/08 13:58:42;;;;;;;;;;;;;;;;;;4115250;28;19961;-58
2024/02/08 14:00:44;;;;;;;;;;;;;;;;;;4117082;28;19926;-58
2024/02/08 14:02:49;;;;;;;;;;;;;;;;;;4114823;28;19938;-58
2024/02/08 14:04:55;;;;;;;;;;;;;;;;;;4108444;28;19926;-57
2024/02/08 14:06:57;;;;;;;;;;;;;;;;;;4112093;28;19926;-58
2024/02/08 14:09:18;;;;;;;;;;;;;;;;;;4115436;28;19922;-58
2024/02/08 14:11:21;;;;;;;;;;;;;;;;;;4117051;28;20382;-58
2024/02/08 14:13:28;;;;;;;;;;;;;;;;;;4116668;28;19926;-57
2024/02/08 14:15:31;;;;;;;;;;;;;;;;;;4117044;28;20311;-58
2024/02/08 14:17:37;;;;;;;;;;;;;;;;;;4117151;28;19925;-58
2024/02/08 14:19:42;;;;;;;;;;;;;;;;;;4116786;28;19922;-58
2024/02/08 14:21:44;;;;;;;;;;;;;;;;;;4116830;28;19973;-58
2024/02/08 14:23:49;;;;;;;;;;;;;;;;;;4127823;28;20285;-57
2024/02/08 14:28:09;;;;;;;;;;;;;;;;;;4133017;28;19926;-58
2024/02/08 14:30:11;;;;;;;;;;;;;;;;;;4132815;28;19925;-58
2024/02/08 14:32:13;;;;;;;;;;;;;;;;;;4132799;28;19960;-58
2024/02/08 14:34:25;;;;;;;;;;;;;;;;;;4132853;28;19969;-58
2024/02/08 14:36:28;;;;;;;;;;;;;;;;;;4132731;28;19930;-58
2024/02/08 14:38:32;;;;;;;;;;;;;;;;;;4132839;28;19922;-57
2024/02/08 14:40:34;;;;;;;;;;;;;;;;;;4132572;28;19925;-58
2024/02/08 14:42:38;;;;;;;;;;;;;;;;;;4132722;28;20322;-58
2024/02/08 14:44:41;;;;;;;;;;;;;;;;;;4132717;28;20270;-58
2024/02/08 14:46:46;;;;;;;;;;;;;;;;;;4132514;28;19976;-58
2024/02/08 14:48:51;;;;;;;;;;;;;;;;;;4132534;28;19957;-58
2024/02/08 14:50:54;;;;;;;;;;;;;;;;;;4125120;28;19968;-58
2024/02/08 14:53:00;;;;;;;;;;;;;;;;;;4116392;28;20020;-58
2024/02/08 14:55:19;;;;;;;;;;;;;;;;;;4116428;28;20291;-58
2024/02/08 14:57:24;;;;;;;;;;;;;;;;;;4115705;28;19930;-58
2024/02/08 14:59:26;;;;;;;;;;;;;;;;;;4116877;28;20333;-58
2024/02/08 15:01:36;;;;;;;;;;;;;;;;;;4116420;28;20425;-58
2024/02/08 15:03:44;;;;;;;;;;;;;;;;;;4116569;28;19976;-57
2024/02/08 15:05:59;;;;;;;;;;;;;;;;;;4116299;28;19926;-57
2024/02/08 15:08:08;;;;;;;;;;;;;;;;;;4116346;28;19930;-57
2024/02/08 15:10:10;;;;;;;;;;;;;;;;;;4116394;28;19922;-57
2024/02/08 15:14:28;;;;;;;;;;;;;;;;;;4116540;28;19922;-57
2024/02/08 15:16:33;;;;;;;;;;;;;;;;;;4116203;28;19998;-57
2024/02/08 15:18:39;;;;;;;;;;;;;;;;;;4116263;28;19929;-57
2024/02/08 15:20:45;;;;;;;;;;;;;;;;;;4116174;28;20370;-57
2024/02/08 15:22:49;;;;;;;;;;;;;;;;;;4098900;28;19933;-57
2024/02/08 15:24:56;;;;;;;;;;;;;;;;;;4115267;28;19957;-57
2024/02/08 15:27:04;;;;;;;;;;;;;;;;;;4098693;29;20394;-57
2024/02/08 15:29:08;;;;;;;;;;;;;;;;;;4116008;28;19922;-56
2024/02/08 15:31:39;;;;;;;;;;;;;;;;;;4116007;28;19928;-57
2024/02/08 15:33:55;;;;;;;;;;;;;;;;;;4115849;28;20058;-56
2024/02/08 15:35:59;;;;;;;;;;;;;;;;;;4115893;28;19937;-57
2024/02/08 15:38:35;;;;;;;;;;;;;;;;;;4113971;28;19922;-57
2024/02/08 15:40:43;;;;;;;;;;;;;;;;;;4114940;28;19969;-56
2024/02/08 15:42:48;;;;;;;;;;;;;;;;;;4115490;28;20298;-56
2024/02/08 15:44:53;;;;;;;;;;;;;;;;;;4115996;28;20000;-57
2024/02/08 15:46:56;;;;;;;;;;;;;;;;;;4108838;28;20465;-57
2024/02/08 15:49:00;;;;;;;;;;;;;;;;;;4109360;28;19926;-57
2024/02/08 15:51:10;;;;;;;;;;;;;;;;;;4115315;28;19926;-58
2024/02/08 15:53:20;;;;;;;;;;;;;;;;;;4115957;28;19929;-57
2024/02/08 15:55:25;;;;;;;;;;;;;;;;;;4114556;28;19942;-57
2024/02/08 15:57:32;;;;;;;;;;;;;;;;;;4115067;28;19922;-57
2024/02/08 15:59:35;;;;;;;;;;;;;;;;;;4115318;28;19979;-57
2024/02/08 16:01:49;;;;;;;;;;;;;;;;;;4115362;28;19926;-57
2024/02/08 16:03:59;;;;;;;;;;;;;;;;;;4115818;28;19972;-56
2024/02/08 16:06:30;;;;;;;;;;;;;;;;;;4115894;28;19934;-56
2024/02/08 16:08:32;;;;;;;;;;;;;;;;;;4115594;28;20327;-56
2024/02/08 16:10:36;;;;;;;;;;;;;;;;;;4115654;28;19929;-56
2024/02/08 16:12:38;;;;;;;;;;;;;;;;;;4115690;28;19926;-57
2024/02/08 16:14:42;;;;;;;;;;;;;;;;;;4115645;28;20326;-57